Date,TemperatureHighF,TemperatureAvgF,TemperatureLowF,DewpointHighF,DewpointAvgF,DewpointLowF,HumidityHigh,HumidityAvg,HumidityLow,PressureMaxIn,PressureMinIn,WindSpeedMaxMPH,WindSpeedAvgMPH,GustSpeedMaxMPH,PrecipitationSumIn
2012-12-1,68,48,37,54,43,36,98,84,55,30.36,30.26,10,0,10,0.00
2012-12-2,72,54,41,57,48,40,98,82,53,30.36,30.23,11,1,11,0.00
2012-12-3,72,54,40,57,48,39,98,82,56,30.31,30.21,9,0,9,0.00
2012-12-4,70,58,44,59,52,43,99,82,59,30.31,30.18,10,0,10,0.00
2012-12-5,64,57,51,60,52,44,98,85,66,30.26,30.14,10,0,10,0.10
2012-12-6,61,53,48,49,46,43,91,78,62,30.18,30.08,7,0,8,0.00
2012-12-7,63,55,51,54,49,45,94,80,71,30.11,29.97,8,0,8,0.00
2012-12-8,61,56,54,55,51,50,89,85,79,30.04,29.98,8,0,8,0.00
2012-12-10,57,52,42,57,50,38,98,93,84,29.94,29.81,7,1,7,1.00
2012-12-11,42,36,34,38,32,31,92,85,79,30.19,29.94,10,0,10,0.00
2012-12-12,49,39,34,36,32,30,86,76,55,30.28,30.18,9,0,10,0.00
2012-12-13,55,37,27,40,32,26,96,82,53,30.38,30.25,7,0,7,0.00
2012-12-14,50,33,26,41,31,25,98,93,66,30.38,30.19,4,0,5,0.00
2012-12-15,58,48,36,46,40,34,95,75,63,30.20,30.04,10,1,13,0.00
2012-12-16,56,54,52,55,52,46,98,91,77,30.03,29.83,3,1,11,0.81
2012-12-17,60,56,50,58,54,48,98,95,89,29.85,29.68,2,1,9,0.17
2012-12-18,59,47,34,50,40,32,98,78,41,30.00,29.74,2,0,7,0.00
2012-12-19,63,45,32,50,40,30,98,84,58,30.11,30.00,2,0,6,0.00
2012-12-20,55,48,42,52,41,30,98,79,60,30.02,29.64,19,2,19,1.16
2012-12-21,44,37,28,30,24,19,78,58,41,30.22,29.90,18,2,23,0.02
2012-12-22,48,32,22,28,22,18,89,68,34,30.33,30.20,5,0,11,0.00
2012-12-23,53,39,23,41,29,21,94,71,49,30.20,30.02,8,0,8,0.03
2012-12-24,54,49,42,53,48,40,100,96,83,30.02,29.84,7,0,7,0.58
2012-12-25,51,48,45,50,47,45,100,98,95,30.05,29.91,6,0,7,0.05
2012-12-26,54,41,35,52,37,30,99,86,76,30.03,29.44,21,2,26,0.24
2012-12-27,38,35,30,32,30,27,92,82,73,30.14,30.02,12,1,12,0.00
2012-12-28,43,37,29,40,34,27,95,88,75,30.13,29.78,14,0,14,0.31
2012-12-29,41,38,33,40,35,26,97,88,74,30.28,29.78,9,1,16,0.08
2012-12-30,42,32,25,28,25,21,93,75,55,30.49,30.27,10,1,10,0.00
2012-12-31,49,37,24,36,30,23,95,77,50,30.39,30.11,9,0,9,0.01